sensor_id;sensor_type;location;lat;lon;timestamp;P1;durP1;ratioP1;P2;durP2;ratioP2
71969;SDS011;59838;52.152;5.436;2024-01-30T00:01:45;9.23;;;6.63;;
71969;SDS011;59838;52.152;5.436;2024-01-30T00:04:11;11.63;;;7.22;;
71969;SDS011;59838;52.152;5.436;2024-01-30T00:06:38;11.32;;;7.10;;
71969;SDS011;59838;52.152;5.436;2024-01-30T00:09:05;8.88;;;6.30;;
71969;SDS011;59838;52.152;5.436;2024-01-30T00:11:31;12.00;;;6.55;;
71969;SDS011;59838;52.152;5.436;2024-01-30T00:13:58;9.63;;;6.70;;
71969;SDS011;59838;52.152;5.436;2024-01-30T00:16:24;13.02;;;6.68;;
71969;SDS011;59838;52.152;5.436;2024-01-30T00:18:51;11.65;;;6.70;;
71969;SDS011;59838;52.152;5.436;2024-01-30T00:21:19;10.25;;;6.30;;
71969;SDS011;59838;52.152;5.436;2024-01-30T00:23:46;11.00;;;6.50;;
71969;SDS011;59838;52.152;5.436;2024-01-30T00:26:13;9.40;;;6.63;;
71969;SDS011;59838;52.152;5.436;2024-01-30T00:28:41;10.85;;;6.85;;
71969;SDS011;59838;52.152;5.436;2024-01-30T00:31:08;12.55;;;6.75;;
71969;SDS011;59838;52.152;5.436;2024-01-30T00:33:41;11.23;;;6.65;;
71969;SDS011;59838;52.152;5.436;2024-01-30T00:36:08;12.68;;;7.10;;
71969;SDS011;59838;52.152;5.436;2024-01-30T00:38:35;11.75;;;6.28;;
71969;SDS011;59838;52.152;5.436;2024-01-30T00:41:03;10.03;;;6.27;;
71969;SDS011;59838;52.152;5.436;2024-01-30T00:43:31;10.75;;;6.28;;
71969;SDS011;59838;52.152;5.436;2024-01-30T00:45:58;10.57;;;6.68;;
71969;SDS011;59838;52.152;5.436;2024-01-30T00:48:25;10.55;;;6.25;;
71969;SDS011;59838;52.152;5.436;2024-01-30T00:50:52;14.65;;;6.70;;
71969;SDS011;59838;52.152;5.436;2024-01-30T00:53:18;13.50;;;7.00;;
71969;SDS011;59838;52.152;5.436;2024-01-30T00:55:45;11.95;;;6.60;;
71969;SDS011;59838;52.152;5.436;2024-01-30T00:58:11;10.52;;;6.60;;
71969;SDS011;59838;52.152;5.436;2024-01-30T01:00:38;12.68;;;6.32;;
71969;SDS011;59838;52.152;5.436;2024-01-30T01:03:05;10.65;;;6.57;;
71969;SDS011;59838;52.152;5.436;2024-01-30T01:05:31;11.63;;;5.80;;
71969;SDS011;59838;52.152;5.436;2024-01-30T01:07:58;8.52;;;5.70;;
71969;SDS011;59838;52.152;5.436;2024-01-30T01:10:24;13.25;;;5.80;;
71969;SDS011;59838;52.152;5.436;2024-01-30T01:12:51;9.05;;;5.75;;
71969;SDS011;59838;52.152;5.436;2024-01-30T01:15:17;10.63;;;6.25;;
71969;SDS011;59838;52.152;5.436;2024-01-30T01:17:44;10.27;;;6.13;;
71969;SDS011;59838;52.152;5.436;2024-01-30T01:20:10;12.30;;;6.65;;
71969;SDS011;59838;52.152;5.436;2024-01-30T01:22:37;10.05;;;5.43;;
71969;SDS011;59838;52.152;5.436;2024-01-30T01:25:05;10.00;;;5.90;;
71969;SDS011;59838;52.152;5.436;2024-01-30T01:27:36;8.52;;;5.60;;
71969;SDS011;59838;52.152;5.436;2024-01-30T01:30:08;10.13;;;6.30;;
71969;SDS011;59838;52.152;5.436;2024-01-30T01:32:36;13.55;;;5.80;;
71969;SDS011;59838;52.152;5.436;2024-01-30T01:35:04;10.93;;;5.97;;
71969;SDS011;59838;52.152;5.436;2024-01-30T01:37:32;8.07;;;5.15;;
71969;SDS011;59838;52.152;5.436;2024-01-30T01:39:59;11.90;;;5.95;;
71969;SDS011;59838;52.152;5.436;2024-01-30T01:42:26;10.07;;;5.43;;
71969;SDS011;59838;52.152;5.436;2024-01-30T01:44:52;9.18;;;4.88;;
71969;SDS011;59838;52.152;5.436;2024-01-30T01:47:19;9.43;;;5.70;;
71969;SDS011;59838;52.152;5.436;2024-01-30T01:49:46;11.68;;;5.60;;
71969;SDS011;59838;52.152;5.436;2024-01-30T01:52:13;9.85;;;5.93;;
71969;SDS011;59838;52.152;5.436;2024-01-30T01:54:39;11.97;;;6.27;;
71969;SDS011;59838;52.152;5.436;2024-01-30T01:57:06;9.98;;;6.03;;
71969;SDS011;59838;52.152;5.436;2024-01-30T01:59:33;12.57;;;5.85;;
71969;SDS011;59838;52.152;5.436;2024-01-30T02:02:00;11.48;;;5.60;;
71969;SDS011;59838;52.152;5.436;2024-01-30T02:04:28;10.70;;;5.80;;
71969;SDS011;59838;52.152;5.436;2024-01-30T02:06:55;11.07;;;5.70;;
71969;SDS011;59838;52.152;5.436;2024-01-30T02:09:22;8.98;;;5.15;;
71969;SDS011;59838;52.152;5.436;2024-01-30T02:11:48;8.55;;;5.25;;
71969;SDS011;59838;52.152;5.436;2024-01-30T02:14:15;8.07;;;4.70;;
71969;SDS011;59838;52.152;5.436;2024-01-30T02:16:41;7.53;;;5.03;;
71969;SDS011;59838;52.152;5.436;2024-01-30T02:19:08;7.63;;;5.60;;
71969;SDS011;59838;52.152;5.436;2024-01-30T02:21:35;7.07;;;5.10;;
71969;SDS011;59838;52.152;5.436;2024-01-30T02:24:01;10.40;;;5.63;;
71969;SDS011;59838;52.152;5.436;2024-01-30T02:26:29;8.55;;;5.03;;
71969;SDS011;59838;52.152;5.436;2024-01-30T02:28:56;8.60;;;4.75;;
71969;SDS011;59838;52.152;5.436;2024-01-30T02:31:22;7.77;;;5.00;;
71969;SDS011;59838;52.152;5.436;2024-01-30T02:33:51;11.75;;;5.28;;
71969;SDS011;59838;52.152;5.436;2024-01-30T02:36:17;9.15;;;5.15;;
71969;SDS011;59838;52.152;5.436;2024-01-30T02:38:44;7.60;;;4.50;;
71969;SDS011;59838;52.152;5.436;2024-01-30T02:41:12;7.10;;;4.57;;
71969;SDS011;59838;52.152;5.436;2024-01-30T02:43:39;8.80;;;5.43;;
71969;SDS011;59838;52.152;5.436;2024-01-30T02:46:05;8.35;;;4.82;;
71969;SDS011;59838;52.152;5.436;2024-01-30T02:48:32;6.95;;;4.47;;
71969;SDS011;59838;52.152;5.436;2024-01-30T02:50:58;7.68;;;5.28;;
71969;SDS011;59838;52.152;5.436;2024-01-30T02:53:25;8.50;;;4.95;;
71969;SDS011;59838;52.152;5.436;2024-01-30T02:55:51;13.07;;;5.60;;
71969;SDS011;59838;52.152;5.436;2024-01-30T02:58:18;8.68;;;5.25;;
71969;SDS011;59838;52.152;5.436;2024-01-30T03:00:44;7.35;;;5.00;;
71969;SDS011;59838;52.152;5.436;2024-01-30T03:03:11;8.00;;;5.13;;
71969;SDS011;59838;52.152;5.436;2024-01-30T03:05:38;9.65;;;5.18;;
71969;SDS011;59838;52.152;5.436;2024-01-30T03:08:04;9.37;;;4.87;;
71969;SDS011;59838;52.152;5.436;2024-01-30T03:10:31;9.32;;;4.40;;
71969;SDS011;59838;52.152;5.436;2024-01-30T03:12:58;6.88;;;5.32;;
71969;SDS011;59838;52.152;5.436;2024-01-30T03:15:24;9.48;;;4.70;;
71969;SDS011;59838;52.152;5.436;2024-01-30T03:17:53;7.97;;;5.00;;
71969;SDS011;59838;52.152;5.436;2024-01-30T03:20:20;9.73;;;5.83;;
71969;SDS011;59838;52.152;5.436;2024-01-30T03:22:46;8.25;;;5.53;;
71969;SDS011;59838;52.152;5.436;2024-01-30T03:25:13;10.45;;;5.78;;
71969;SDS011;59838;52.152;5.436;2024-01-30T03:27:40;9.07;;;5.82;;
71969;SDS011;59838;52.152;5.436;2024-01-30T03:30:06;9.68;;;5.20;;
71969;SDS011;59838;52.152;5.436;2024-01-30T03:32:33;12.77;;;6.37;;
71969;SDS011;59838;52.152;5.436;2024-01-30T03:35:00;10.85;;;6.53;;
71969;SDS011;59838;52.152;5.436;2024-01-30T03:37:27;7.60;;;5.10;;
71969;SDS011;59838;52.152;5.436;2024-01-30T03:39:53;10.55;;;5.47;;
71969;SDS011;59838;52.152;5.436;2024-01-30T03:42:20;8.63;;;5.90;;
71969;SDS011;59838;52.152;5.436;2024-01-30T03:44:47;9.02;;;5.82;;
71969;SDS011;59838;52.152;5.436;2024-01-30T03:47:13;13.88;;;5.85;;
71969;SDS011;59838;52.152;5.436;2024-01-30T03:49:40;13.55;;;5.80;;
71969;SDS011;59838;52.152;5.436;2024-01-30T03:52:07;13.80;;;6.45;;
71969;SDS011;59838;52.152;5.436;2024-01-30T03:54:33;10.38;;;6.10;;
71969;SDS011;59838;52.152;5.436;2024-01-30T03:57:00;8.90;;;6.10;;
71969;SDS011;59838;52.152;5.436;2024-01-30T03:59:26;10.85;;;6.10;;
71969;SDS011;59838;52.152;5.436;2024-01-30T04:01:53;10.63;;;6.47;;
71969;SDS011;59838;52.152;5.436;2024-01-30T04:04:20;12.73;;;6.32;;
71969;SDS011;59838;52.152;5.436;2024-01-30T04:06:47;11.00;;;6.45;;
71969;SDS011;59838;52.152;5.436;2024-01-30T04:09:13;11.35;;;6.18;;
71969;SDS011;59838;52.152;5.436;2024-01-30T04:11:41;14.35;;;6.47;;
71969;SDS011;59838;52.152;5.436;2024-01-30T04:14:08;11.75;;;6.10;;
71969;SDS011;59838;52.152;5.436;2024-01-30T04:16:34;9.40;;;5.93;;
71969;SDS011;59838;52.152;5.436;2024-01-30T04:19:02;7.88;;;4.82;;
71969;SDS011;59838;52.152;5.436;2024-01-30T04:21:29;8.55;;;6.03;;
71969;SDS011;59838;52.152;5.436;2024-01-30T04:23:55;10.50;;;5.35;;
71969;SDS011;59838;52.152;5.436;2024-01-30T04:26:21;7.03;;;4.90;;
71969;SDS011;59838;52.152;5.436;2024-01-30T04:28:48;9.85;;;5.70;;
71969;SDS011;59838;52.152;5.436;2024-01-30T04:31:14;8.00;;;5.03;;
71969;SDS011;59838;52.152;5.436;2024-01-30T04:33:41;7.72;;;4.65;;
71969;SDS011;59838;52.152;5.436;2024-01-30T04:36:08;8.10;;;5.35;;
71969;SDS011;59838;52.152;5.436;2024-01-30T04:38:36;8.25;;;4.75;;
71969;SDS011;59838;52.152;5.436;2024-01-30T04:41:04;6.57;;;4.65;;
71969;SDS011;59838;52.152;5.436;2024-01-30T04:43:31;7.45;;;4.32;;
71969;SDS011;59838;52.152;5.436;2024-01-30T04:45:57;5.50;;;4.17;;
71969;SDS011;59838;52.152;5.436;2024-01-30T04:48:24;7.82;;;4.10;;
71969;SDS011;59838;52.152;5.436;2024-01-30T04:50:50;7.82;;;4.68;;
71969;SDS011;59838;52.152;5.436;2024-01-30T04:53:17;5.32;;;3.95;;
71969;SDS011;59838;52.152;5.436;2024-01-30T04:55:43;7.20;;;4.20;;
71969;SDS011;59838;52.152;5.436;2024-01-30T04:58:10;7.43;;;4.63;;
71969;SDS011;59838;52.152;5.436;2024-01-30T05:00:36;7.15;;;4.28;;
71969;SDS011;59838;52.152;5.436;2024-01-30T05:03:03;7.20;;;4.20;;
71969;SDS011;59838;52.152;5.436;2024-01-30T05:05:30;8.45;;;4.57;;
71969;SDS011;59838;52.152;5.436;2024-01-30T05:07:56;8.40;;;4.35;;
71969;SDS011;59838;52.152;5.436;2024-01-30T05:10:23;7.05;;;5.13;;
71969;SDS011;59838;52.152;5.436;2024-01-30T05:12:49;7.90;;;4.38;;
71969;SDS011;59838;52.152;5.436;2024-01-30T05:15:16;5.97;;;4.38;;
71969;SDS011;59838;52.152;5.436;2024-01-30T05:17:43;7.53;;;4.80;;
71969;SDS011;59838;52.152;5.436;2024-01-30T05:20:10;6.18;;;3.90;;
71969;SDS011;59838;52.152;5.436;2024-01-30T05:22:37;10.70;;;4.57;;
71969;SDS011;59838;52.152;5.436;2024-01-30T05:25:04;6.20;;;4.07;;
71969;SDS011;59838;52.152;5.436;2024-01-30T05:27:31;7.72;;;4.35;;
71969;SDS011;59838;52.152;5.436;2024-01-30T05:29:57;7.38;;;4.43;;
71969;SDS011;59838;52.152;5.436;2024-01-30T05:32:24;6.97;;;4.32;;
71969;SDS011;59838;52.152;5.436;2024-01-30T05:34:50;7.90;;;4.80;;
71969;SDS011;59838;52.152;5.436;2024-01-30T05:37:17;9.75;;;4.47;;
71969;SDS011;59838;52.152;5.436;2024-01-30T05:39:44;7.88;;;3.85;;
71969;SDS011;59838;52.152;5.436;2024-01-30T05:42:10;5.97;;;3.92;;
71969;SDS011;59838;52.152;5.436;2024-01-30T05:44:37;6.40;;;4.10;;
71969;SDS011;59838;52.152;5.436;2024-01-30T05:47:04;6.83;;;3.73;;
71969;SDS011;59838;52.152;5.436;2024-01-30T05:49:31;7.20;;;4.28;;
71969;SDS011;59838;52.152;5.436;2024-01-30T05:51:57;9.82;;;4.35;;
71969;SDS011;59838;52.152;5.436;2024-01-30T05:54:24;10.73;;;4.28;;
71969;SDS011;59838;52.152;5.436;2024-01-30T05:56:50;7.63;;;4.60;;
71969;SDS011;59838;52.152;5.436;2024-01-30T05:59:17;9.02;;;4.75;;
71969;SDS011;59838;52.152;5.436;2024-01-30T06:01:47;8.38;;;3.72;;
71969;SDS011;59838;52.152;5.436;2024-01-30T06:04:15;7.18;;;4.55;;
71969;SDS011;59838;52.152;5.436;2024-01-30T06:06:42;6.68;;;4.55;;
71969;SDS011;59838;52.152;5.436;2024-01-30T06:09:08;7.22;;;4.22;;
71969;SDS011;59838;52.152;5.436;2024-01-30T06:11:35;8.23;;;4.40;;
71969;SDS011;59838;52.152;5.436;2024-01-30T06:14:02;7.90;;;4.00;;
71969;SDS011;59838;52.152;5.436;2024-01-30T06:16:28;8.00;;;4.28;;
71969;SDS011;59838;52.152;5.436;2024-01-30T06:18:56;6.63;;;4.32;;
71969;SDS011;59838;52.152;5.436;2024-01-30T06:21:23;5.57;;;3.83;;
71969;SDS011;59838;52.152;5.436;2024-01-30T06:23:50;7.70;;;4.37;;
71969;SDS011;59838;52.152;5.436;2024-01-30T06:26:16;4.82;;;4.00;;
71969;SDS011;59838;52.152;5.436;2024-01-30T06:28:43;8.65;;;4.40;;
71969;SDS011;59838;52.152;5.436;2024-01-30T06:31:10;7.03;;;4.35;;
71969;SDS011;59838;52.152;5.436;2024-01-30T06:33:37;10.55;;;4.15;;
71969;SDS011;59838;52.152;5.436;2024-01-30T06:36:03;9.93;;;4.40;;
71969;SDS011;59838;52.152;5.436;2024-01-30T06:38:30;7.80;;;4.20;;
71969;SDS011;59838;52.152;5.436;2024-01-30T06:40:56;7.57;;;4.53;;
71969;SDS011;59838;52.152;5.436;2024-01-30T06:43:23;5.13;;;3.53;;
71969;SDS011;59838;52.152;5.436;2024-01-30T06:45:50;5.88;;;3.40;;
71969;SDS011;59838;52.152;5.436;2024-01-30T06:48:18;11.30;;;4.07;;
71969;SDS011;59838;52.152;5.436;2024-01-30T06:50:44;6.28;;;4.20;;
71969;SDS011;59838;52.152;5.436;2024-01-30T06:53:11;6.65;;;3.80;;
71969;SDS011;59838;52.152;5.436;2024-01-30T06:55:38;7.30;;;4.15;;
71969;SDS011;59838;52.152;5.436;2024-01-30T06:58:04;7.50;;;4.57;;
71969;SDS011;59838;52.152;5.436;2024-01-30T07:00:31;5.27;;;3.77;;
71969;SDS011;59838;52.152;5.436;2024-01-30T07:02:57;8.23;;;4.07;;
71969;SDS011;59838;52.152;5.436;2024-01-30T07:05:24;7.03;;;4.10;;
71969;SDS011;59838;52.152;5.436;2024-01-30T07:07:50;6.88;;;4.80;;
71969;SDS011;59838;52.152;5.436;2024-01-30T07:10:17;7.25;;;3.53;;
71969;SDS011;59838;52.152;5.436;2024-01-30T07:12:44;9.20;;;4.47;;
71969;SDS011;59838;52.152;5.436;2024-01-30T07:15:10;7.28;;;4.47;;
71969;SDS011;59838;52.152;5.436;2024-01-30T07:17:37;6.80;;;4.30;;
71969;SDS011;59838;52.152;5.436;2024-01-30T07:20:03;10.40;;;3.85;;
71969;SDS011;59838;52.152;5.436;2024-01-30T07:22:31;7.97;;;4.03;;
71969;SDS011;59838;52.152;5.436;2024-01-30T07:24:57;7.50;;;3.65;;
71969;SDS011;59838;52.152;5.436;2024-01-30T07:27:24;8.73;;;4.13;;
71969;SDS011;59838;52.152;5.436;2024-01-30T07:29:51;6.18;;;4.03;;
71969;SDS011;59838;52.152;5.436;2024-01-30T07:32:17;6.82;;;3.88;;
71969;SDS011;59838;52.152;5.436;2024-01-30T07:34:45;5.07;;;3.70;;
71969;SDS011;59838;52.152;5.436;2024-01-30T07:37:31;6.97;;;4.10;;
71969;SDS011;59838;52.152;5.436;2024-01-30T07:39:58;7.32;;;4.00;;
71969;SDS011;59838;52.152;5.436;2024-01-30T07:42:24;8.65;;;3.83;;
71969;SDS011;59838;52.152;5.436;2024-01-30T07:44:51;6.20;;;4.50;;
71969;SDS011;59838;52.152;5.436;2024-01-30T07:47:18;7.45;;;4.20;;
71969;SDS011;59838;52.152;5.436;2024-01-30T07:49:44;5.07;;;3.83;;
71969;SDS011;59838;52.152;5.436;2024-01-30T07:52:11;7.15;;;3.60;;
71969;SDS011;59838;52.152;5.436;2024-01-30T07:54:38;7.28;;;4.10;;
71969;SDS011;59838;52.152;5.436;2024-01-30T07:57:05;7.22;;;4.43;;
71969;SDS011;59838;52.152;5.436;2024-01-30T07:59:31;6.75;;;3.83;;
71969;SDS011;59838;52.152;5.436;2024-01-30T08:01:58;7.27;;;3.90;;
71969;SDS011;59838;52.152;5.436;2024-01-30T08:04:24;4.53;;;3.65;;
71969;SDS011;59838;52.152;5.436;2024-01-30T08:06:52;7.40;;;4.20;;
71969;SDS011;59838;52.152;5.436;2024-01-30T08:09:19;8.95;;;4.50;;
71969;SDS011;59838;52.152;5.436;2024-01-30T08:11:45;7.63;;;3.70;;
71969;SDS011;59838;52.152;5.436;2024-01-30T08:14:12;7.80;;;4.13;;
71969;SDS011;59838;52.152;5.436;2024-01-30T08:16:40;4.70;;;3.63;;
71969;SDS011;59838;52.152;5.436;2024-01-30T08:19:06;7.50;;;4.07;;
71969;SDS011;59838;52.152;5.436;2024-01-30T08:21:33;6.35;;;4.03;;
71969;SDS011;59838;52.152;5.436;2024-01-30T08:24:05;9.10;;;4.25;;
71969;SDS011;59838;52.152;5.436;2024-01-30T08:26:32;8.65;;;3.72;;
71969;SDS011;59838;52.152;5.436;2024-01-30T08:29:00;8.35;;;4.07;;
71969;SDS011;59838;52.152;5.436;2024-01-30T08:31:28;6.07;;;3.88;;
71969;SDS011;59838;52.152;5.436;2024-01-30T08:33:55;10.40;;;4.25;;
71969;SDS011;59838;52.152;5.436;2024-01-30T08:36:22;7.78;;;4.13;;
71969;SDS011;59838;52.152;5.436;2024-01-30T08:38:48;6.93;;;4.00;;
71969;SDS011;59838;52.152;5.436;2024-01-30T08:41:15;6.90;;;3.85;;
71969;SDS011;59838;52.152;5.436;2024-01-30T08:43:42;7.55;;;4.25;;
71969;SDS011;59838;52.152;5.436;2024-01-30T08:46:08;7.15;;;4.13;;
71969;SDS011;59838;52.152;5.436;2024-01-30T08:48:35;6.70;;;3.88;;
71969;SDS011;59838;52.152;5.436;2024-01-30T08:51:02;10.60;;;4.63;;
71969;SDS011;59838;52.152;5.436;2024-01-30T08:53:29;9.70;;;4.18;;
71969;SDS011;59838;52.152;5.436;2024-01-30T08:55:56;8.02;;;3.83;;
71969;SDS011;59838;52.152;5.436;2024-01-30T08:58:25;10.90;;;4.90;;
71969;SDS011;59838;52.152;5.436;2024-01-30T09:00:52;11.93;;;3.95;;
71969;SDS011;59838;52.152;5.436;2024-01-30T09:03:19;6.07;;;4.20;;
71969;SDS011;59838;52.152;5.436;2024-01-30T09:05:45;7.63;;;3.75;;
71969;SDS011;59838;52.152;5.436;2024-01-30T09:08:12;10.70;;;4.10;;
71969;SDS011;59838;52.152;5.436;2024-01-30T09:10:38;14.23;;;4.05;;
71969;SDS011;59838;52.152;5.436;2024-01-30T09:13:05;6.68;;;4.05;;
71969;SDS011;59838;52.152;5.436;2024-01-30T09:15:31;9.23;;;4.07;;
71969;SDS011;59838;52.152;5.436;2024-01-30T09:17:58;6.72;;;3.08;;
71969;SDS011;59838;52.152;5.436;2024-01-30T09:20:25;7.88;;;3.95;;
71969;SDS011;59838;52.152;5.436;2024-01-30T09:22:51;9.82;;;4.20;;
71969;SDS011;59838;52.152;5.436;2024-01-30T09:25:17;6.63;;;3.65;;
71969;SDS011;59838;52.152;5.436;2024-01-30T09:27:46;8.23;;;4.30;;
71969;SDS011;59838;52.152;5.436;2024-01-30T09:30:13;11.70;;;4.68;;
71969;SDS011;59838;52.152;5.436;2024-01-30T09:32:40;7.10;;;3.60;;
71969;SDS011;59838;52.152;5.436;2024-01-30T09:35:07;8.18;;;4.10;;
71969;SDS011;59838;52.152;5.436;2024-01-30T09:37:34;7.10;;;4.78;;
71969;SDS011;59838;52.152;5.436;2024-01-30T09:40:01;9.97;;;3.63;;
71969;SDS011;59838;52.152;5.436;2024-01-30T09:42:34;6.90;;;3.80;;
71969;SDS011;59838;52.152;5.436;2024-01-30T09:45:05;9.60;;;3.85;;
71969;SDS011;59838;52.152;5.436;2024-01-30T09:47:32;11.93;;;3.92;;
71969;SDS011;59838;52.152;5.436;2024-01-30T09:50:06;7.40;;;3.58;;
71969;SDS011;59838;52.152;5.436;2024-01-30T09:52:33;9.48;;;4.18;;
71969;SDS011;59838;52.152;5.436;2024-01-30T09:55:00;5.80;;;4.13;;
71969;SDS011;59838;52.152;5.436;2024-01-30T09:57:27;6.32;;;3.42;;
71969;SDS011;59838;52.152;5.436;2024-01-30T09:59:54;10.90;;;3.78;;
71969;SDS011;59838;52.152;5.436;2024-01-30T10:02:21;10.15;;;3.70;;
71969;SDS011;59838;52.152;5.436;2024-01-30T10:04:48;6.32;;;3.30;;
71969;SDS011;59838;52.152;5.436;2024-01-30T10:07:17;7.03;;;4.15;;
71969;SDS011;59838;52.152;5.436;2024-01-30T10:09:44;9.98;;;3.72;;
71969;SDS011;59838;52.152;5.436;2024-01-30T10:12:11;9.77;;;4.20;;
71969;SDS011;59838;52.152;5.436;2024-01-30T10:14:39;6.47;;;4.05;;
71969;SDS011;59838;52.152;5.436;2024-01-30T10:17:10;8.07;;;4.20;;
71969;SDS011;59838;52.152;5.436;2024-01-30T10:19:49;7.38;;;4.13;;
71969;SDS011;59838;52.152;5.436;2024-01-30T10:22:18;7.20;;;3.83;;
71969;SDS011;59838;52.152;5.436;2024-01-30T10:24:44;8.23;;;3.60;;
71969;SDS011;59838;52.152;5.436;2024-01-30T10:27:11;9.98;;;4.28;;
71969;SDS011;59838;52.152;5.436;2024-01-30T10:29:38;8.57;;;4.00;;
71969;SDS011;59838;52.152;5.436;2024-01-30T10:32:05;6.07;;;4.10;;
71969;SDS011;59838;52.152;5.436;2024-01-30T10:34:32;7.80;;;3.70;;
71969;SDS011;59838;52.152;5.436;2024-01-30T10:39:39;5.75;;;3.47;;
71969;SDS011;59838;52.152;5.436;2024-01-30T10:42:10;8.00;;;4.00;;
71969;SDS011;59838;52.152;5.436;2024-01-30T10:47:28;8.40;;;3.67;;
71969;SDS011;59838;52.152;5.436;2024-01-30T10:49:55;8.00;;;3.17;;
71969;SDS011;59838;52.152;5.436;2024-01-30T10:52:23;6.53;;;3.78;;
71969;SDS011;59838;52.152;5.436;2024-01-30T10:54:54;7.20;;;3.80;;
71969;SDS011;59838;52.152;5.436;2024-01-30T10:57:25;8.25;;;3.67;;
71969;SDS011;59838;52.152;5.436;2024-01-30T10:59:59;7.78;;;3.38;;
71969;SDS011;59838;52.152;5.436;2024-01-30T11:02:28;8.45;;;3.58;;
71969;SDS011;59838;52.152;5.436;2024-01-30T11:04:58;9.80;;;3.45;;
71969;SDS011;59838;52.152;5.436;2024-01-30T11:07:27;7.95;;;3.38;;
71969;SDS011;59838;52.152;5.436;2024-01-30T11:12:24;6.55;;;3.00;;
71969;SDS011;59838;52.152;5.436;2024-01-30T11:22:48;6.80;;;3.03;;
71969;SDS011;59838;52.152;5.436;2024-01-30T11:25:17;8.48;;;3.10;;
71969;SDS011;59838;52.152;5.436;2024-01-30T11:27:45;4.90;;;3.05;;
71969;SDS011;59838;52.152;5.436;2024-01-30T11:30:22;4.38;;;2.47;;
71969;SDS011;59838;52.152;5.436;2024-01-30T11:32:59;5.60;;;2.50;;
71969;SDS011;59838;52.152;5.436;2024-01-30T11:35:27;7.78;;;2.85;;
71969;SDS011;59838;52.152;5.436;2024-01-30T11:37:55;3.40;;;1.98;;
71969;SDS011;59838;52.152;5.436;2024-01-30T11:40:25;7.15;;;1.48;;
71969;SDS011;59838;52.152;5.436;2024-01-30T11:42:54;4.47;;;1.20;;
71969;SDS011;59838;52.152;5.436;2024-01-30T11:45:21;6.22;;;1.13;;
71969;SDS011;59838;52.152;5.436;2024-01-30T11:47:48;6.35;;;1.42;;
71969;SDS011;59838;52.152;5.436;2024-01-30T11:50:15;4.88;;;1.10;;
71969;SDS011;59838;52.152;5.436;2024-01-30T11:52:41;3.70;;;0.98;;
71969;SDS011;59838;52.152;5.436;2024-01-30T11:55:09;3.63;;;0.50;;
71969;SDS011;59838;52.152;5.436;2024-01-30T11:57:36;2.22;;;0.50;;
71969;SDS011;59838;52.152;5.436;2024-01-30T12:00:06;2.50;;;0.50;;
71969;SDS011;59838;52.152;5.436;2024-01-30T12:02:40;4.50;;;0.43;;
71969;SDS011;59838;52.152;5.436;2024-01-30T12:05:06;1.15;;;0.40;;
71969;SDS011;59838;52.152;5.436;2024-01-30T12:07:33;7.10;;;0.60;;
71969;SDS011;59838;52.152;5.436;2024-01-30T12:10:00;2.28;;;0.73;;
71969;SDS011;59838;52.152;5.436;2024-01-30T12:12:27;3.00;;;0.50;;
71969;SDS011;59838;52.152;5.436;2024-01-30T12:14:55;1.75;;;0.40;;
71969;SDS011;59838;52.152;5.436;2024-01-30T12:17:23;1.95;;;0.60;;
71969;SDS011;59838;52.152;5.436;2024-01-30T12:19:51;1.33;;;0.32;;
71969;SDS011;59838;52.152;5.436;2024-01-30T12:22:17;1.75;;;0.50;;
71969;SDS011;59838;52.152;5.436;2024-01-30T12:24:44;2.05;;;0.60;;
71969;SDS011;59838;52.152;5.436;2024-01-30T12:27:11;1.70;;;0.50;;
71969;SDS011;59838;52.152;5.436;2024-01-30T12:29:41;2.72;;;0.60;;
71969;SDS011;59838;52.152;5.436;2024-01-30T12:32:08;1.55;;;0.73;;
71969;SDS011;59838;52.152;5.436;2024-01-30T12:34:39;3.88;;;1.17;;
71969;SDS011;59838;52.152;5.436;2024-01-30T12:37:07;2.28;;;0.88;;
71969;SDS011;59838;52.152;5.436;2024-01-30T12:39:35;4.18;;;0.95;;
71969;SDS011;59838;52.152;5.436;2024-01-30T12:42:01;3.13;;;0.80;;
71969;SDS011;59838;52.152;5.436;2024-01-30T12:44:29;4.20;;;0.93;;
71969;SDS011;59838;52.152;5.436;2024-01-30T12:46:56;3.87;;;0.90;;
71969;SDS011;59838;52.152;5.436;2024-01-30T12:49:22;1.67;;;0.60;;
71969;SDS011;59838;52.152;5.436;2024-01-30T12:51:49;7.40;;;0.80;;
71969;SDS011;59838;52.152;5.436;2024-01-30T12:54:15;3.42;;;0.60;;
71969;SDS011;59838;52.152;5.436;2024-01-30T12:56:42;1.17;;;0.35;;
71969;SDS011;59838;52.152;5.436;2024-01-30T12:59:09;2.07;;;0.60;;
71969;SDS011;59838;52.152;5.436;2024-01-30T13:01:35;4.53;;;0.80;;
71969;SDS011;59838;52.152;5.436;2024-01-30T13:04:02;3.08;;;1.00;;
71969;SDS011;59838;52.152;5.436;2024-01-30T13:06:29;3.88;;;0.88;;
71969;SDS011;59838;52.152;5.436;2024-01-30T13:08:55;2.05;;;0.60;;
71969;SDS011;59838;52.152;5.436;2024-01-30T13:11:22;2.43;;;0.53;;
71969;SDS011;59838;52.152;5.436;2024-01-30T13:13:48;4.57;;;1.17;;
71969;SDS011;59838;52.152;5.436;2024-01-30T13:16:15;3.95;;;0.80;;
71969;SDS011;59838;52.152;5.436;2024-01-30T13:18:42;1.25;;;0.40;;
71969;SDS011;59838;52.152;5.436;2024-01-30T13:21:09;2.35;;;0.45;;
71969;SDS011;59838;52.152;5.436;2024-01-30T13:23:36;2.67;;;0.40;;
71969;SDS011;59838;52.152;5.436;2024-01-30T13:26:02;3.03;;;0.43;;
71969;SDS011;59838;52.152;5.436;2024-01-30T13:28:29;2.97;;;0.77;;
71969;SDS011;59838;52.152;5.436;2024-01-30T13:30:55;2.95;;;0.60;;
71969;SDS011;59838;52.152;5.436;2024-01-30T13:33:22;1.40;;;0.22;;
71969;SDS011;59838;52.152;5.436;2024-01-30T13:35:49;3.33;;;0.35;;
71969;SDS011;59838;52.152;5.436;2024-01-30T13:38:15;1.88;;;0.25;;
71969;SDS011;59838;52.152;5.436;2024-01-30T13:40:42;1.15;;;0.20;;
71969;SDS011;59838;52.152;5.436;2024-01-30T13:43:09;3.55;;;0.30;;
71969;SDS011;59838;52.152;5.436;2024-01-30T13:45:35;3.92;;;0.73;;
71969;SDS011;59838;52.152;5.436;2024-01-30T13:48:02;0.73;;;0.30;;
71969;SDS011;59838;52.152;5.436;2024-01-30T13:50:29;2.95;;;0.20;;
71969;SDS011;59838;52.152;5.436;2024-01-30T13:52:56;2.30;;;0.30;;
71969;SDS011;59838;52.152;5.436;2024-01-30T13:55:24;3.17;;;0.30;;
71969;SDS011;59838;52.152;5.436;2024-01-30T13:57:51;1.95;;;0.50;;
71969;SDS011;59838;52.152;5.436;2024-01-30T14:00:18;2.87;;;0.40;;
71969;SDS011;59838;52.152;5.436;2024-01-30T14:02:45;4.13;;;0.40;;
71969;SDS011;59838;52.152;5.436;2024-01-30T14:05:11;1.02;;;0.30;;
71969;SDS011;59838;52.152;5.436;2024-01-30T14:07:38;4.88;;;1.00;;
71969;SDS011;59838;52.152;5.436;2024-01-30T14:10:09;1.90;;;0.65;;
71969;SDS011;59838;52.152;5.436;2024-01-30T14:12:41;2.47;;;0.50;;
71969;SDS011;59838;52.152;5.436;2024-01-30T14:15:08;1.67;;;0.90;;
71969;SDS011;59838;52.152;5.436;2024-01-30T14:17:52;1.60;;;0.60;;
71969;SDS011;59838;52.152;5.436;2024-01-30T14:20:19;0.80;;;0.40;;
71969;SDS011;59838;52.152;5.436;2024-01-30T14:22:46;3.25;;;0.40;;
71969;SDS011;59838;52.152;5.436;2024-01-30T14:25:12;2.88;;;0.28;;
71969;SDS011;59838;52.152;5.436;2024-01-30T14:27:39;2.28;;;0.43;;
71969;SDS011;59838;52.152;5.436;2024-01-30T14:30:05;0.63;;;0.25;;
71969;SDS011;59838;52.152;5.436;2024-01-30T14:32:33;1.02;;;0.20;;
71969;SDS011;59838;52.152;5.436;2024-01-30T14:35:01;1.65;;;0.40;;
71969;SDS011;59838;52.152;5.436;2024-01-30T14:37:27;4.40;;;0.20;;
71969;SDS011;59838;52.152;5.436;2024-01-30T14:39:56;2.92;;;0.28;;
71969;SDS011;59838;52.152;5.436;2024-01-30T14:42:22;2.72;;;0.20;;
71969;SDS011;59838;52.152;5.436;2024-01-30T14:44:49;0.80;;;0.30;;
71969;SDS011;59838;52.152;5.436;2024-01-30T14:47:15;3.05;;;0.50;;
71969;SDS011;59838;52.152;5.436;2024-01-30T14:49:42;3.00;;;0.47;;
71969;SDS011;59838;52.152;5.436;2024-01-30T14:52:09;0.60;;;0.30;;
71969;SDS011;59838;52.152;5.436;2024-01-30T14:54:37;3.67;;;0.40;;
71969;SDS011;59838;52.152;5.436;2024-01-30T14:57:03;2.33;;;0.57;;
71969;SDS011;59838;52.152;5.436;2024-01-30T14:59:31;1.75;;;0.40;;
71969;SDS011;59838;52.152;5.436;2024-01-30T15:01:57;1.10;;;0.50;;